sensor_id;sensor_type;location;lat;lon;timestamp;pressure;altitude;pressure_sealevel;temperature;humidity
76632;BME280;65526;48.578;-4.520;2023-02-01T06:42:37;102266.38;;;5.41;68.30
76632;BME280;65526;48.578;-4.520;2023-02-01T06:45:04;102720.16;;;7.97;68.40
76632;BME280;65526;48.578;-4.520;2023-02-01T06:47:32;102617.44;;;7.39;68.43
76632;BME280;65526;48.578;-4.520;2023-02-01T06:49:59;102807.31;;;8.74;69.17
76632;BME280;65526;48.578;-4.520;2023-02-01T06:52:25;102312.97;;;5.58;69.00
76632;BME280;65526;48.578;-4.520;2023-02-01T06:54:51;102400.88;;;6.20;69.26
76632;BME280;65526;48.578;-4.520;2023-02-01T06:57:18;102244.31;;;5.26;69.97
76632;BME280;65526;48.578;-4.520;2023-02-01T06:59:44;102501.25;;;6.85;69.49
76632;BME280;65526;48.578;-4.520;2023-02-01T07:02:11;102228.88;;;5.20;70.00
76632;BME280;65526;48.578;-4.520;2023-02-01T07:04:37;102155.09;;;4.66;70.22
76632;BME280;65526;48.578;-4.520;2023-02-01T07:07:04;102612.44;;;7.46;70.56
76632;BME280;65526;48.578;-4.520;2023-02-01T07:09:31;102411.31;;;6.33;70.47
76632;BME280;65526;48.578;-4.520;2023-02-01T07:11:57;102615.81;;;7.33;71.01
76632;BME280;65526;48.578;-4.520;2023-02-01T07:14:23;102798.06;;;8.45;71.03
76632;BME280;65526;48.578;-4.520;2023-02-01T07:16:50;102438.44;;;6.16;70.76
76632;BME280;65526;48.578;-4.520;2023-02-01T07:19:17;102335.28;;;5.72;70.85
76632;BME280;65526;48.578;-4.520;2023-02-01T07:21:43;102592.09;;;7.12;71.40
76632;BME280;65526;48.578;-4.520;2023-02-01T07:24:09;102933.19;;;9.27;71.69
76632;BME280;65526;48.578;-4.520;2023-02-01T07:26:36;102657.84;;;7.40;71.64
76632;BME280;65526;48.578;-4.520;2023-02-01T07:29:02;102415.22;;;6.27;71.59
76632;BME280;65526;48.578;-4.520;2023-02-01T07:31:28;102117.09;;;4.28;71.31
76632;BME280;65526;48.578;-4.520;2023-02-01T07:33:55;102382.72;;;5.99;71.81
76632;BME280;65526;48.578;-4.520;2023-02-01T07:36:22;102446.44;;;6.18;71.72
76632;BME280;65526;48.578;-4.520;2023-02-01T07:38:48;102457.44;;;6.43;71.54
76632;BME280;65526;48.578;-4.520;2023-02-01T07:41:15;102585.16;;;7.20;71.90
76632;BME280;65526;48.578;-4.520;2023-02-01T07:43:41;102223.97;;;4.97;71.54
76632;BME280;65526;48.578;-4.520;2023-02-01T07:46:09;102328.94;;;5.15;72.22
76632;BME280;65526;48.578;-4.520;2023-02-01T07:48:36;102108.81;;;4.18;72.29
76632;BME280;65526;48.578;-4.520;2023-02-01T07:51:04;102919.94;;;9.14;72.56
76632;BME280;65526;48.578;-4.520;2023-02-01T07:53:31;102667.19;;;7.49;72.70
76632;BME280;65526;48.578;-4.520;2023-02-01T07:55:59;102412.50;;;6.02;72.38
76632;BME280;65526;48.578;-4.520;2023-02-01T07:58:26;103018.69;;;9.15;72.78
76632;BME280;65526;48.578;-4.520;2023-02-01T08:00:53;102643.16;;;7.45;72.97
76632;BME280;65526;48.578;-4.520;2023-02-01T08:03:39;102724.63;;;7.83;72.82
76632;BME280;65526;48.578;-4.520;2023-02-01T08:06:05;102119.03;;;4.17;72.71
76632;BME280;65526;48.578;-4.520;2023-02-01T08:08:32;102517.59;;;6.66;73.10
76632;BME280;65526;48.578;-4.520;2023-02-01T08:11:00;102706.19;;;7.58;72.43
76632;BME280;65526;48.578;-4.520;2023-02-01T08:13:27;102704.22;;;7.74;73.16
76632;BME280;65526;48.578;-4.520;2023-02-01T08:15:58;102330.88;;;5.50;72.77
76632;BME280;65526;48.578;-4.520;2023-02-01T08:18:25;102933.47;;;9.26;72.86
76632;BME280;65526;48.578;-4.520;2023-02-01T08:20:51;102012.50;;;3.62;72.39
76632;BME280;65526;48.578;-4.520;2023-02-01T08:23:18;102943.97;;;9.34;72.54
76632;BME280;65526;48.578;-4.520;2023-02-01T08:25:44;102699.22;;;7.71;72.68
76632;BME280;65526;48.578;-4.520;2023-02-01T08:28:11;102223.41;;;4.95;72.55
76632;BME280;65526;48.578;-4.520;2023-02-01T08:30:38;102201.91;;;4.87;72.39
76632;BME280;65526;48.578;-4.520;2023-02-01T08:33:05;102251.78;;;5.10;72.42
76632;BME280;65526;48.578;-4.520;2023-02-01T08:35:35;102787.97;;;8.00;72.51
76632;BME280;65526;48.578;-4.520;2023-02-01T08:38:02;102606.97;;;7.31;72.41
76632;BME280;65526;48.578;-4.520;2023-02-01T08:40:29;102622.97;;;7.34;72.73
76632;BME280;65526;48.578;-4.520;2023-02-01T08:42:56;102755.63;;;7.85;72.93
76632;BME280;65526;48.578;-4.520;2023-02-01T08:45:26;102341.66;;;5.32;72.96
76632;BME280;65526;48.578;-4.520;2023-02-01T08:47:53;102496.31;;;6.72;73.48
76632;BME280;65526;48.578;-4.520;2023-02-01T08:50:21;102676.69;;;7.97;74.31
76632;BME280;65526;48.578;-4.520;2023-02-01T08:52:48;102450.69;;;6.74;74.36
76632;BME280;65526;48.578;-4.520;2023-02-01T08:55:15;102622.50;;;7.81;74.91
76632;BME280;65526;48.578;-4.520;2023-02-01T08:57:41;102672.00;;;7.88;74.96
76632;BME280;65526;48.578;-4.520;2023-02-01T09:00:11;102847.03;;;9.03;75.00
76632;BME280;65526;48.578;-4.520;2023-02-01T09:02:39;102702.00;;;8.35;75.13
76632;BME280;65526;48.578;-4.520;2023-02-01T09:05:05;102474.63;;;7.04;74.91
76632;BME280;65526;48.578;-4.520;2023-02-01T09:07:33;102337.16;;;6.12;74.75
76632;BME280;65526;48.578;-4.520;2023-02-01T09:10:00;102315.88;;;6.07;74.52
76632;BME280;65526;48.578;-4.520;2023-02-01T09:12:31;102498.09;;;7.12;74.37
76632;BME280;65526;48.578;-4.520;2023-02-01T09:14:58;102532.53;;;7.35;73.98
76632;BME280;65526;48.578;-4.520;2023-02-01T09:17:27;103059.81;;;10.01;74.03
76632;BME280;65526;48.578;-4.520;2023-02-01T09:19:53;102713.44;;;8.13;73.83
76632;BME280;65526;48.578;-4.520;2023-02-01T09:22:20;102511.41;;;7.05;73.39
76632;BME280;65526;48.578;-4.520;2023-02-01T09:24:46;102753.78;;;8.79;73.61
76632;BME280;65526;48.578;-4.520;2023-02-01T09:27:13;102630.28;;;7.79;72.35
76632;BME280;65526;48.578;-4.520;2023-02-01T09:29:39;102486.00;;;6.98;72.16
76632;BME280;65526;48.578;-4.520;2023-02-01T09:32:06;102775.22;;;8.63;71.51
76632;BME280;65526;48.578;-4.520;2023-02-01T09:34:33;102242.59;;;5.61;71.78
76632;BME280;65526;48.578;-4.520;2023-02-01T09:37:00;102751.50;;;8.47;71.73
76632;BME280;65526;48.578;-4.520;2023-02-01T09:39:27;102735.34;;;8.59;71.41
76632;BME280;65526;48.578;-4.520;2023-02-01T09:47:34;102191.94;;;5.36;69.99
76632;BME280;65526;48.578;-4.520;2023-02-01T09:53:00;102682.81;;;7.94;69.58
76632;BME280;65526;48.578;-4.520;2023-02-01T09:55:43;102501.19;;;6.95;69.07
76632;BME280;65526;48.578;-4.520;2023-02-01T09:59:01;103016.66;;;10.14;68.83
76632;BME280;65526;48.578;-4.520;2023-02-01T10:01:18;102608.03;;;7.45;68.32
76632;BME280;65526;48.578;-4.520;2023-02-01T10:03:46;103010.53;;;9.78;67.27
76632;BME280;65526;48.578;-4.520;2023-02-01T10:06:33;103025.00;;;10.14;67.34
76632;BME280;65526;48.578;-4.520;2023-02-01T10:20:18;103035.31;;;10.08;67.16
76632;BME280;65526;48.578;-4.520;2023-02-01T10:26:42;103026.97;;;10.08;67.69
76632;BME280;65526;48.578;-4.520;2023-02-01T10:28:42;102628.78;;;7.38;67.04
76632;BME280;65526;48.578;-4.520;2023-02-01T10:31:10;102788.56;;;8.56;68.25
76632;BME280;65526;48.578;-4.520;2023-02-01T10:33:42;102583.50;;;7.19;67.79
76632;BME280;65526;48.578;-4.520;2023-02-01T10:36:17;102682.22;;;7.97;66.99
76632;BME280;65526;48.578;-4.520;2023-02-01T10:38:46;103097.50;;;10.17;66.48
76632;BME280;65526;48.578;-4.520;2023-02-01T10:41:19;102221.47;;;5.05;65.18
76632;BME280;65526;48.578;-4.520;2023-02-01T10:43:48;102755.72;;;8.39;66.17
76632;BME280;65526;48.578;-4.520;2023-02-01T10:46:16;102784.75;;;8.47;67.18
76632;BME280;65526;48.578;-4.520;2023-02-01T10:48:42;102847.69;;;8.90;66.00
76632;BME280;65526;48.578;-4.520;2023-02-01T10:51:19;102744.31;;;8.46;65.97
76632;BME280;65526;48.578;-4.520;2023-02-01T10:53:56;102630.31;;;7.69;66.70
76632;BME280;65526;48.578;-4.520;2023-02-01T10:56:26;102590.06;;;7.38;67.10
76632;BME280;65526;48.578;-4.520;2023-02-01T10:59:03;102600.28;;;7.42;66.41
76632;BME280;65526;48.578;-4.520;2023-02-01T11:01:34;102833.63;;;8.82;68.06
76632;BME280;65526;48.578;-4.520;2023-02-01T11:04:23;102548.78;;;7.51;66.78
76632;BME280;65526;48.578;-4.520;2023-02-01T11:07:06;102637.88;;;7.53;67.70
76632;BME280;65526;48.578;-4.520;2023-02-01T11:09:39;102549.09;;;7.45;67.46
76632;BME280;65526;48.578;-4.520;2023-02-01T11:12:22;103032.69;;;10.56;67.29
76632;BME280;65526;48.578;-4.520;2023-02-01T11:14:50;102582.22;;;7.60;67.84
76632;BME280;65526;48.578;-4.520;2023-02-01T11:17:24;103025.34;;;10.65;68.19
76632;BME280;65526;48.578;-4.520;2023-02-01T11:20:01;102235.94;;;5.82;67.91
76632;BME280;65526;48.578;-4.520;2023-02-01T11:22:28;102774.44;;;8.96;67.32
76632;BME280;65526;48.578;-4.520;2023-02-01T11:24:56;103127.28;;;10.80;68.28
76632;BME280;65526;48.578;-4.520;2023-02-01T11:27:24;102795.63;;;9.21;67.39
76632;BME280;65526;48.578;-4.520;2023-02-01T11:29:53;102780.47;;;9.08;67.70
76632;BME280;65526;48.578;-4.520;2023-02-01T11:32:23;103059.34;;;10.86;67.04
76632;BME280;65526;48.578;-4.520;2023-02-01T11:35:03;102608.06;;;7.89;67.56
76632;BME280;65526;48.578;-4.520;2023-02-01T11:37:35;102864.94;;;9.89;67.87
76632;BME280;65526;48.578;-4.520;2023-02-01T11:43:19;102601.72;;;8.33;67.30
76632;BME280;65526;48.578;-4.520;2023-02-01T11:45:59;102549.66;;;7.91;67.36
76632;BME280;65526;48.578;-4.520;2023-02-01T11:48:29;102509.28;;;7.85;66.60
76632;BME280;65526;48.578;-4.520;2023-02-01T11:56:50;103003.53;;;11.01;65.31
76632;BME280;65526;48.578;-4.520;2023-02-01T11:59:55;102716.13;;;9.06;65.47
76632;BME280;65526;48.578;-4.520;2023-02-01T12:16:42;102857.63;;;10.46;62.74
76632;BME280;65526;48.578;-4.520;2023-02-01T12:25:30;102834.53;;;10.50;63.23
76632;BME280;65526;48.578;-4.520;2023-02-01T12:28:06;102990.81;;;11.37;63.29
76632;BME280;65526;48.578;-4.520;2023-02-01T12:30:55;102611.84;;;9.05;63.27
76632;BME280;65526;48.578;-4.520;2023-02-01T12:33:52;102996.88;;;11.39;63.54
76632;BME280;65526;48.578;-4.520;2023-02-01T12:42:15;102778.25;;;9.63;64.01
76632;BME280;65526;48.578;-4.520;2023-02-01T12:44:48;102511.63;;;8.35;63.87
76632;BME280;65526;48.578;-4.520;2023-02-01T12:50:20;102983.03;;;11.16;64.18
76632;BME280;65526;48.578;-4.520;2023-02-01T12:52:51;102833.00;;;10.10;64.72
76632;BME280;65526;48.578;-4.520;2023-02-01T12:55:34;102376.75;;;7.44;64.89
76632;BME280;65526;48.578;-4.520;2023-02-01T12:58:11;102808.78;;;9.92;64.92
76632;BME280;65526;48.578;-4.520;2023-02-01T13:03:44;102982.72;;;11.17;63.97
76632;BME280;65526;48.578;-4.520;2023-02-01T13:06:20;102501.19;;;8.27;63.54
76632;BME280;65526;48.578;-4.520;2023-02-01T13:09:00;102650.03;;;9.13;64.54
76632;BME280;65526;48.578;-4.520;2023-02-01T13:11:31;102681.41;;;9.38;63.18
76632;BME280;65526;48.578;-4.520;2023-02-01T13:16:57;102828.56;;;9.85;64.38
76632;BME280;65526;48.578;-4.520;2023-02-01T13:23:02;102377.53;;;7.50;63.45
76632;BME280;65526;48.578;-4.520;2023-02-01T13:27:42;102507.88;;;8.21;63.09
76632;BME280;65526;48.578;-4.520;2023-02-01T13:30:15;102960.28;;;11.08;63.58
76632;BME280;65526;48.578;-4.520;2023-02-01T13:35:59;102965.09;;;11.03;64.20
76632;BME280;65526;48.578;-4.520;2023-02-01T13:43:44;102788.75;;;9.95;65.16
76632;BME280;65526;48.578;-4.520;2023-02-01T13:46:15;102495.66;;;8.22;64.63
76632;BME280;65526;48.578;-4.520;2023-02-01T13:48:55;102296.25;;;6.78;64.76
76632;BME280;65526;48.578;-4.520;2023-02-01T13:51:34;102800.94;;;9.99;64.84
76632;BME280;65526;48.578;-4.520;2023-02-01T13:54:01;102467.50;;;7.81;63.91
76632;BME280;65526;48.578;-4.520;2023-02-01T13:56:39;102936.81;;;10.96;64.49
76632;BME280;65526;48.578;-4.520;2023-02-01T14:05:54;102590.06;;;8.94;65.03
76632;BME280;65526;48.578;-4.520;2023-02-01T14:13:36;102472.94;;;8.25;65.39
76632;BME280;65526;48.578;-4.520;2023-02-01T14:29:09;102425.34;;;7.89;66.80
76632;BME280;65526;48.578;-4.520;2023-02-01T14:34:20;102747.16;;;9.66;65.87
76632;BME280;65526;48.578;-4.520;2023-02-01T14:36:52;102493.06;;;8.02;65.70
76632;BME280;65526;48.578;-4.520;2023-02-01T14:39:31;102782.97;;;10.15;65.11
76632;BME280;65526;48.578;-4.520;2023-02-01T14:42:03;102522.59;;;8.51;66.01
76632;BME280;65526;48.578;-4.520;2023-02-01T14:44:33;102446.06;;;7.97;63.89
76632;BME280;65526;48.578;-4.520;2023-02-01T14:49:36;102194.03;;;6.34;64.34
76632;BME280;65526;48.578;-4.520;2023-02-01T14:52:08;102357.78;;;7.33;64.92
76632;BME280;65526;48.578;-4.520;2023-02-01T14:54:37;102484.19;;;8.05;64.83
76632;BME280;65526;48.578;-4.520;2023-02-01T14:57:13;102460.56;;;7.84;64.19
76632;BME280;65526;48.578;-4.520;2023-02-01T14:59:41;102944.31;;;10.77;65.83
76632;BME280;65526;48.578;-4.520;2023-02-01T15:02:21;102500.97;;;7.85;65.01
76632;BME280;65526;48.578;-4.520;2023-02-01T15:04:56;102683.81;;;9.21;66.58
76632;BME280;65526;48.578;-4.520;2023-02-01T15:07:25;102457.63;;;7.70;65.93
76632;BME280;65526;48.578;-4.520;2023-02-01T15:09:56;102537.28;;;7.78;65.18
76632;BME280;65526;48.578;-4.520;2023-02-01T15:12:26;103018.50;;;10.81;65.24
76632;BME280;65526;48.578;-4.520;2023-02-01T15:15:11;102663.63;;;8.86;64.51
76632;BME280;65526;48.578;-4.520;2023-02-01T15:17:38;102476.75;;;7.67;65.09
76632;BME280;65526;48.578;-4.520;2023-02-01T15:20:18;102965.00;;;10.65;64.62
76632;BME280;65526;48.578;-4.520;2023-02-01T15:22:57;103029.28;;;10.64;65.29
76632;BME280;65526;48.578;-4.520;2023-02-01T15:25:35;102447.63;;;7.40;64.69
76632;BME280;65526;48.578;-4.520;2023-02-01T15:28:03;103045.47;;;10.57;65.00
76632;BME280;65526;48.578;-4.520;2023-02-01T15:30:34;102833.56;;;9.26;65.63
76632;BME280;65526;48.578;-4.520;2023-02-01T15:33:19;102722.16;;;8.80;65.28
76632;BME280;65526;48.578;-4.520;2023-02-01T15:35:48;102332.13;;;6.24;65.15
76632;BME280;65526;48.578;-4.520;2023-02-01T15:43:32;102695.59;;;8.73;66.96
76632;BME280;65526;48.578;-4.520;2023-02-01T15:46:01;102173.66;;;5.61;66.74
76632;BME280;65526;48.578;-4.520;2023-02-01T15:48:37;102691.72;;;8.74;66.80
76632;BME280;65526;48.578;-4.520;2023-02-01T15:51:04;102701.38;;;8.77;66.84
76632;BME280;65526;48.578;-4.520;2023-02-01T15:53:31;102596.91;;;8.05;66.85
76632;BME280;65526;48.578;-4.520;2023-02-01T15:56:00;102981.34;;;10.14;66.81
76632;BME280;65526;48.578;-4.520;2023-02-01T15:58:29;102826.00;;;9.02;66.27
76632;BME280;65526;48.578;-4.520;2023-02-01T16:01:00;102692.34;;;8.66;66.11
76632;BME280;65526;48.578;-4.520;2023-02-01T16:03:38;102983.38;;;10.38;65.56
76632;BME280;65526;48.578;-4.520;2023-02-01T16:06:10;102208.69;;;5.60;64.97
76632;BME280;65526;48.578;-4.520;2023-02-01T16:08:49;102694.00;;;8.62;65.09
76632;BME280;65526;48.578;-4.520;2023-02-01T16:11:27;102834.22;;;9.46;65.11
76632;BME280;65526;48.578;-4.520;2023-02-01T16:14:00;102637.44;;;7.85;65.08
76632;BME280;65526;48.578;-4.520;2023-02-01T16:16:28;102987.47;;;10.45;65.31
76632;BME280;65526;48.578;-4.520;2023-02-01T16:18:55;102789.41;;;9.00;66.49
76632;BME280;65526;48.578;-4.520;2023-02-01T16:21:21;102510.38;;;7.45;65.74
76632;BME280;65526;48.578;-4.520;2023-02-01T16:23:52;102509.84;;;7.38;65.51
76632;BME280;65526;48.578;-4.520;2023-02-01T16:26:19;103028.41;;;10.40;65.92
76632;BME280;65526;48.578;-4.520;2023-02-01T16:28:46;102615.13;;;8.11;66.45
76632;BME280;65526;48.578;-4.520;2023-02-01T16:31:15;102717.75;;;8.79;66.49
76632;BME280;65526;48.578;-4.520;2023-02-01T16:33:51;102777.19;;;8.96;66.50
76632;BME280;65526;48.578;-4.520;2023-02-01T16:36:18;102684.91;;;8.62;66.95
76632;BME280;65526;48.578;-4.520;2023-02-01T16:38:45;102430.78;;;6.83;67.10
76632;BME280;65526;48.578;-4.520;2023-02-01T16:41:15;102524.13;;;7.55;67.06
76632;BME280;65526;48.578;-4.520;2023-02-01T16:43:42;102492.50;;;7.22;66.56
76632;BME280;65526;48.578;-4.520;2023-02-01T16:46:17;102317.03;;;6.01;66.89
76632;BME280;65526;48.578;-4.520;2023-02-01T16:48:50;102489.41;;;7.34;66.11
76632;BME280;65526;48.578;-4.520;2023-02-01T16:51:17;102768.19;;;8.37;65.87
76632;BME280;65526;48.578;-4.520;2023-02-01T16:53:45;102341.78;;;6.26;66.08
76632;BME280;65526;48.578;-4.520;2023-02-01T16:56:17;102145.97;;;5.06;66.31
76632;BME280;65526;48.578;-4.520;2023-02-01T16:58:44;103042.22;;;10.16;67.00
76632;BME280;65526;48.578;-4.520;2023-02-01T17:01:12;102675.28;;;8.00;65.86
76632;BME280;65526;48.578;-4.520;2023-02-01T17:03:40;102628.78;;;7.97;66.78
76632;BME280;65526;48.578;-4.520;2023-02-01T17:06:08;102487.72;;;6.79;65.50
76632;BME280;65526;48.578;-4.520;2023-02-01T17:08:38;102685.09;;;8.26;65.93
76632;BME280;65526;48.578;-4.520;2023-02-01T17:11:06;102196.91;;;5.29;65.59
76632;BME280;65526;48.578;-4.520;2023-02-01T17:13:33;102515.78;;;7.11;65.62
76632;BME280;65526;48.578;-4.520;2023-02-01T17:16:06;103025.31;;;10.07;65.37
76632;BME280;65526;48.578;-4.520;2023-02-01T17:18:35;102561.13;;;7.10;65.83
76632;BME280;65526;48.578;-4.520;2023-02-01T17:21:03;102526.28;;;7.19;66.40
76632;BME280;65526;48.578;-4.520;2023-02-01T17:23:30;102715.22;;;8.43;65.72
76632;BME280;65526;48.578;-4.520;2023-02-01T17:25:57;102716.69;;;8.30;65.61
76632;BME280;65526;48.578;-4.520;2023-02-01T17:28:24;103036.72;;;10.06;65.58
76632;BME280;65526;48.578;-4.520;2023-02-01T17:30:50;102965.00;;;9.79;65.82
76632;BME280;65526;48.578;-4.520;2023-02-01T17:33:24;102796.16;;;8.84;65.97
76632;BME280;65526;48.578;-4.520;2023-02-01T17:35:53;102612.22;;;7.28;65.62
76632;BME280;65526;48.578;-4.520;2023-02-01T17:38:20;102676.63;;;8.08;66.65
76632;BME280;65526;48.578;-4.520;2023-02-01T17:40:46;102663.34;;;8.05;66.74
76632;BME280;65526;48.578;-4.520;2023-02-01T17:43:23;102549.06;;;6.75;66.30
76632;BME280;65526;48.578;-4.520;2023-02-01T17:45:52;102389.25;;;6.33;65.65
76632;BME280;65526;48.578;-4.520;2023-02-01T17:48:20;102562.66;;;7.41;65.19
76632;BME280;65526;48.578;-4.520;2023-02-01T17:50:51;102342.41;;;6.03;63.79
76632;BME280;65526;48.578;-4.520;2023-02-01T17:53:24;102955.66;;;9.70;63.87
76632;BME280;65526;48.578;-4.520;2023-02-01T17:55:51;102673.72;;;7.79;64.38
76632;BME280;65526;48.578;-4.520;2023-02-01T17:58:18;102699.56;;;8.18;63.89
76632;BME280;65526;48.578;-4.520;2023-02-01T18:00:46;102642.78;;;7.67;63.85
76632;BME280;65526;48.578;-4.520;2023-02-01T18:05:51;102145.16;;;4.86;64.60
76632;BME280;65526;48.578;-4.520;2023-02-01T18:08:20;102999.19;;;10.08;65.65
76632;BME280;65526;48.578;-4.520;2023-02-01T18:10:52;102486.53;;;6.95;66.09
76632;BME280;65526;48.578;-4.520;2023-02-01T18:13:20;102816.72;;;8.78;66.46
76632;BME280;65526;48.578;-4.520;2023-02-01T18:15:47;102849.47;;;8.71;66.31
76632;BME280;65526;48.578;-4.520;2023-02-01T18:18:13;102497.34;;;6.91;66.54
76632;BME280;65526;48.578;-4.520;2023-02-01T18:20:41;102575.69;;;7.36;66.72
76632;BME280;65526;48.578;-4.520;2023-02-01T18:23:17;102997.19;;;10.14;67.04
76632;BME280;65526;48.578;-4.520;2023-02-01T18:25:45;102331.66;;;6.02;66.87
76632;BME280;65526;48.578;-4.520;2023-02-01T18:28:13;102748.50;;;8.38;67.67
76632;BME280;65526;48.578;-4.520;2023-02-01T18:30:44;102384.66;;;5.78;67.64
76632;BME280;65526;48.578;-4.520;2023-02-01T18:33:15;102903.34;;;9.43;67.56
76632;BME280;65526;48.578;-4.520;2023-02-01T18:35:42;102523.59;;;6.99;67.85
76632;BME280;65526;48.578;-4.520;2023-02-01T18:38:08;102718.81;;;8.44;68.14
76632;BME280;65526;48.578;-4.520;2023-02-01T18:40:39;102224.47;;;5.34;67.86
76632;BME280;65526;48.578;-4.520;2023-02-01T18:43:09;102687.41;;;8.09;68.07
76632;BME280;65526;48.578;-4.520;2023-02-01T18:45:39;102558.16;;;6.91;68.03
76632;BME280;65526;48.578;-4.520;2023-02-01T18:48:07;102457.31;;;6.73;68.33
76632;BME280;65526;48.578;-4.520;2023-02-01T18:50:36;102801.09;;;8.43;68.92
76632;BME280;65526;48.578;-4.520;2023-02-01T18:53:05;102508.72;;;6.80;68.15
76632;BME280;65526;48.578;-4.520;2023-02-01T18:55:32;103044.31;;;9.95;67.79
76632;BME280;65526;48.578;-4.520;2023-02-01T18:58:00;102753.03;;;8.14;67.50
76632;BME280;65526;48.578;-4.520;2023-02-01T19:00:27;102905.47;;;8.73;66.47
76632;BME280;65526;48.578;-4.520;2023-02-01T19:02:54;102535.22;;;6.81;66.05
76632;BME280;65526;48.578;-4.520;2023-02-01T19:05:20;102250.97;;;5.05;65.93
76632;BME280;65526;48.578;-4.520;2023-02-01T19:07:47;102227.25;;;5.09;66.40
76632;BME280;65526;48.578;-4.520;2023-02-01T19:10:16;102448.06;;;6.39;66.40
76632;BME280;65526;48.578;-4.520;2023-02-01T19:12:43;102150.41;;;4.62;66.69
76632;BME280;65526;48.578;-4.520;2023-02-01T19:15:11;102718.25;;;7.92;66.57
76632;BME280;65526;48.578;-4.520;2023-02-01T19:17:48;102653.13;;;7.46;66.62
76632;BME280;65526;48.578;-4.520;2023-02-01T19:20:18;102215.13;;;5.00;66.83
76632;BME280;65526;48.578;-4.520;2023-02-01T19:22:46;102548.47;;;6.89;66.96
76632;BME280;65526;48.578;-4.520;2023-02-01T19:25:16;102521.13;;;6.92;67.40
76632;BME280;65526;48.578;-4.520;2023-02-01T19:27:43;102795.34;;;8.34;67.46
76632;BME280;65526;48.578;-4.520;2023-02-01T19:30:10;102739.19;;;8.14;67.56
76632;BME280;65526;48.578;-4.520;2023-02-01T19:32:37;102493.31;;;6.58;67.91
76632;BME280;65526;48.578;-4.520;2023-02-01T19:35:04;102740.81;;;8.20;67.85
76632;BME280;65526;48.578;-4.520;2023-02-01T19:37:31;102582.50;;;6.84;67.40
76632;BME280;65526;48.578;-4.520;2023-02-01T19:39:57;102317.91;;;5.71;67.35
76632;BME280;65526;48.578;-4.520;2023-02-01T19:42:25;102154.84;;;4.78;67.57
76632;BME280;65526;48.578;-4.520;2023-02-01T19:44:51;103049.03;;;9.94;67.94
76632;BME280;65526;48.578;-4.520;2023-02-01T19:47:18;102407.28;;;5.95;67.73
76632;BME280;65526;48.578;-4.520;2023-02-01T19:49:44;103001.25;;;9.92;68.14
76632;BME280;65526;48.578;-4.520;2023-02-01T19:52:11;102536.91;;;6.87;68.21
76632;BME280;65526;48.578;-4.520;2023-02-01T19:54:37;103070.16;;;9.90;68.47
76632;BME280;65526;48.578;-4.520;2023-02-01T19:57:03;103063.53;;;9.86;68.64
76632;BME280;65526;48.578;-4.520;2023-02-01T19:59:30;102770.41;;;8.34;68.37
76632;BME280;65526;48.578;-4.520;2023-02-01T20:01:56;102805.91;;;8.17;68.75
76632;BME280;65526;48.578;-4.520;2023-02-01T20:04:23;102724.72;;;8.22;68.67
76632;BME280;65526;48.578;-4.520;2023-02-01T20:06:49;102525.00;;;6.91;68.69
76632;BME280;65526;48.578;-4.520;2023-02-01T20:09:17;102716.22;;;8.08;68.82
76632;BME280;65526;48.578;-4.520;2023-02-01T20:11:44;102555.97;;;6.78;68.73
76632;BME280;65526;48.578;-4.520;2023-02-01T20:14:11;102444.47;;;6.39;68.58
76632;BME280;65526;48.578;-4.520;2023-02-01T20:16:39;102368.09;;;5.88;69.02
76632;BME280;65526;48.578;-4.520;2023-02-01T20:19:06;102788.09;;;8.44;68.97
76632;BME280;65526;48.578;-4.520;2023-02-01T20:21:36;102741.78;;;7.90;69.18
76632;BME280;65526;48.578;-4.520;2023-02-01T20:24:04;102718.97;;;8.08;69.33
76632;BME280;65526;48.578;-4.520;2023-02-01T20:26:32;103064.69;;;9.80;69.22
76632;BME280;65526;48.578;-4.520;2023-02-01T20:29:00;103003.31;;;9.82;69.29
76632;BME280;65526;48.578;-4.520;2023-02-01T20:31:27;102737.00;;;8.06;69.29
76632;BME280;65526;48.578;-4.520;2023-02-01T20:33:55;102224.22;;;5.05;69.08
76632;BME280;65526;48.578;-4.520;2023-02-01T20:36:23;102933.50;;;9.21;69.74
76632;BME280;65526;48.578;-4.520;2023-02-01T20:38:54;102697.75;;;7.88;70.41
76632;BME280;65526;48.578;-4.520;2023-02-01T20:41:21;102784.38;;;7.99;70.94
76632;BME280;65526;48.578;-4.520;2023-02-01T20:43:48;102528.34;;;6.78;70.34
76632;BME280;65526;48.578;-4.520;2023-02-01T20:46:15;102223.41;;;4.90;70.26
76632;BME280;65526;48.578;-4.520;2023-02-01T20:48:46;102558.47;;;6.80;70.14
76632;BME280;65526;48.578;-4.520;2023-02-01T20:51:15;102823.34;;;8.33;70.10
76632;BME280;65526;48.578;-4.520;2023-02-01T20:53:42;102644.22;;;7.54;69.62
76632;BME280;65526;48.578;-4.520;2023-02-01T20:56:11;102671.28;;;7.67;69.53
76632;BME280;65526;48.578;-4.520;2023-02-01T20:58:41;102321.50;;;5.62;69.13
76632;BME280;65526;48.578;-4.520;2023-02-01T21:01:09;102815.91;;;8.08;69.29
76632;BME280;65526;48.578;-4.520;2023-02-01T21:03:37;103053.53;;;9.85;69.58
76632;BME280;65526;48.578;-4.520;2023-02-01T21:06:04;102516.19;;;6.69;69.62
76632;BME280;65526;48.578;-4.520;2023-02-01T21:08:32;102770.34;;;7.80;69.66
76632;BME280;65526;48.578;-4.520;2023-02-01T21:11:05;102892.63;;;8.87;69.65
76632;BME280;65526;48.578;-4.520;2023-02-01T21:13:34;103068.25;;;9.86;68.04
76632;BME280;65526;48.578;-4.520;2023-02-01T21:16:06;102165.56;;;4.59;67.39
76632;BME280;65526;48.578;-4.520;2023-02-01T21:18:33;102783.44;;;8.34;66.47
76632;BME280;65526;48.578;-4.520;2023-02-01T21:21:08;102223.66;;;4.93;66.53
76632;BME280;65526;48.578;-4.520;2023-02-01T21:23:35;102440.91;;;6.23;66.48
76632;BME280;65526;48.578;-4.520;2023-02-01T21:26:16;102839.69;;;8.34;66.66
76632;BME280;65526;48.578;-4.520;2023-02-01T21:28:43;102714.38;;;7.88;66.32
76632;BME280;65526;48.578;-4.520;2023-02-01T21:31:10;102267.75;;;4.88;65.88
76632;BME280;65526;48.578;-4.520;2023-02-01T21:33:37;103072.69;;;9.87;66.57
76632;BME280;65526;48.578;-4.520;2023-02-01T21:36:04;102781.09;;;7.92;66.63
76632;BME280;65526;48.578;-4.520;2023-02-01T21:38:32;102236.91;;;4.91;66.36
76632;BME280;65526;48.578;-4.520;2023-02-01T21:40:59;102724.34;;;7.94;66.98
76632;BME280;65526;48.578;-4.520;2023-02-01T21:43:48;102272.72;;;5.22;67.33